Aérodrome :
LOGIN :

S'inscrire | Disclaimer

   EN    FR    IT 

 










Légende :    VFR   VFR Marginal   IFR   IFR Intensif   IFR Très Intensif
Visi : 
Plafond : 
>= 8 km
>= 3000ft
5 à 8 km
1000 à 3000 ft
1500m à 5 km
500 à 1000 ft
800 à 1500m
200 à 500 ft
< 800m
< 200 ft
Symboles :   Orages  Brouillard  Fortes neiges  Fortes précipitations  Vent > 20 kt
SIGMETs :   Divers  Orages  Givrage  Turbulence  Onde Orograph.  Cendres Volcan.







- Altitude de l'aérodrome : 605 ft
- Code IATA : BAY


LRBM - Tautii Magheraus

DERNIER METAR :
  • 211900Z AUTO 03004KT 9999 FEW034/// SCT230/// 10/03 Q1025

METARs EXPIRÉS :
  • 211830Z AUTO VRB02KT 9999 FEW023/// SCT220/// 10/03 Q1025
  • 211800Z AUTO 03004KT 340V070 9999 FEW015/// SCT200/// 12/03 Q1025
  • 211730Z AUTO 01004KT 330V050 9999 FEW011/// SCT190/// 12/03 Q1025
  • 211700Z AUTO 02003KT 350V050 9999 FEW014/// SCT200/// 13/03 Q1025
  • 211630Z AUTO 36003KT 340V050 9999 FEW018/// SCT230/// 14/03 Q1025
  • 211600Z AUTO 29003KT 9999 FEW013/// SCT220/// 16/02 Q1025

TAF TAF LRBM
Valide du 21 à 12h jusqu'au 21 à 21h UTC


211100Z 2112/2121 25008KT CAVOK
Pas de NOTAMs connus pour ce terrain.



MET'MAP, la Météo Aéronautique d'un coup d'oeil ! - Copyright ORBIFLY Décembre 2007 - Disclaimer

ORBIFLY MET'MAP TEAM :

Programmation & Développement : Alexandra Zaïnal
Conception & Développement : Baudouin d'Aumeries
Co-Programmation & Développement : Marc-Olivier Méhu
Soutien technique & logistique : Manuel Goepfert

Contact : metmap@orbifly.com




SOURCES & CREDITS :

   NOAA